CheckWX is a tool to help pilots better visualize weather data.  It is not intended as a substitute for an official pre-flight weather briefing.

11:04:25 UTC

KDWH METAR
David Wayne Hooks Memorial Airport
Houston, Texas, USA
Current

1 hour ago

KDWH 180953Z AUTO 00000KT 10SM CLR 26/24 A2989 RMK AO2 SLP121 T02560239
Observed
Aug-18 @ 09:53 UTC
Visibility
10 SM
Flight Rules
VFR
Cloud Levels
  • Clear skies
Temperature
26°C / 79°F
Dewpoint
24°C / 75°F
Humidity
89%
Altimeter
29.89" Hg
Pressure
1012.22 hPa
Previous

2 hours ago

KDWH 180853Z AUTO 00000KT 10SM FEW022 26/24 A2990 RMK AO2 SLP121 T02610239 55002
Observed
Aug-18 @ 08:53 UTC
Visibility
10 SM
Flight Rules
VFR
Cloud Levels
  • Few at 2,200' AGL
Temperature
26°C / 79°F
Dewpoint
24°C / 75°F
Humidity
89%
Altimeter
29.9" Hg
Pressure
1012.52 hPa
Previous

3 hours ago

KDWH 180753Z AUTO 16003KT 10SM FEW021 27/24 A2989 RMK AO2 SLP119 T02720239
Observed
Aug-18 @ 07:53 UTC
Wind
  • 160° at 3 KTS
Visibility
10 SM
Flight Rules
VFR
Cloud Levels
  • Few at 2,100' AGL
Temperature
27°C / 81°F
Dewpoint
24°C / 75°F
Heat Index
31°C / 87°F
Humidity
84%
Altimeter
29.89" Hg
Pressure
1012.22 hPa